sensor_id;sensor_type;location;lat;lon;timestamp;P1;durP1;ratioP1;P2;durP2;ratioP2
34278;SDS011;20538;51.528;9.942;2023-02-13T00:01:28;26.80;;;11.82;;
34278;SDS011;20538;51.528;9.942;2023-02-13T00:03:54;25.67;;;12.25;;
34278;SDS011;20538;51.528;9.942;2023-02-13T00:06:19;27.33;;;11.30;;
34278;SDS011;20538;51.528;9.942;2023-02-13T00:08:45;22.65;;;10.85;;
34278;SDS011;20538;51.528;9.942;2023-02-13T00:11:11;24.05;;;10.98;;
34278;SDS011;20538;51.528;9.942;2023-02-13T00:13:36;28.42;;;12.40;;
34278;SDS011;20538;51.528;9.942;2023-02-13T00:16:02;26.92;;;11.38;;
34278;SDS011;20538;51.528;9.942;2023-02-13T00:18:32;26.33;;;11.60;;
34278;SDS011;20538;51.528;9.942;2023-02-13T00:21:03;23.67;;;11.60;;
34278;SDS011;20538;51.528;9.942;2023-02-13T00:23:33;27.15;;;11.43;;
34278;SDS011;20538;51.528;9.942;2023-02-13T00:26:00;26.73;;;12.00;;
34278;SDS011;20538;51.528;9.942;2023-02-13T00:28:29;23.23;;;11.50;;
34278;SDS011;20538;51.528;9.942;2023-02-13T00:31:01;25.15;;;12.15;;
34278;SDS011;20538;51.528;9.942;2023-02-13T00:33:28;26.65;;;11.75;;
34278;SDS011;20538;51.528;9.942;2023-02-13T00:36:00;27.13;;;12.55;;
34278;SDS011;20538;51.528;9.942;2023-02-13T00:38:29;26.58;;;11.77;;
34278;SDS011;20538;51.528;9.942;2023-02-13T00:40:55;33.10;;;13.10;;
34278;SDS011;20538;51.528;9.942;2023-02-13T00:43:21;27.00;;;12.15;;
34278;SDS011;20538;51.528;9.942;2023-02-13T00:45:46;28.52;;;12.93;;
34278;SDS011;20538;51.528;9.942;2023-02-13T00:48:12;25.27;;;12.52;;
34278;SDS011;20538;51.528;9.942;2023-02-13T00:50:37;26.00;;;12.57;;
34278;SDS011;20538;51.528;9.942;2023-02-13T00:53:03;25.63;;;13.38;;
34278;SDS011;20538;51.528;9.942;2023-02-13T00:55:29;26.20;;;12.25;;
34278;SDS011;20538;51.528;9.942;2023-02-13T00:57:54;26.08;;;12.68;;
34278;SDS011;20538;51.528;9.942;2023-02-13T01:00:23;28.00;;;13.73;;
34278;SDS011;20538;51.528;9.942;2023-02-13T01:02:48;27.60;;;13.98;;
34278;SDS011;20538;51.528;9.942;2023-02-13T01:05:14;28.10;;;13.52;;
34278;SDS011;20538;51.528;9.942;2023-02-13T01:07:40;29.23;;;13.27;;
34278;SDS011;20538;51.528;9.942;2023-02-13T01:10:06;28.50;;;13.50;;
34278;SDS011;20538;51.528;9.942;2023-02-13T01:12:31;29.70;;;14.52;;
34278;SDS011;20538;51.528;9.942;2023-02-13T01:14:57;26.77;;;13.07;;
34278;SDS011;20538;51.528;9.942;2023-02-13T01:17:26;30.05;;;13.50;;
34278;SDS011;20538;51.528;9.942;2023-02-13T01:19:51;34.10;;;14.77;;
34278;SDS011;20538;51.528;9.942;2023-02-13T01:22:17;29.85;;;14.80;;
34278;SDS011;20538;51.528;9.942;2023-02-13T01:24:43;29.92;;;13.95;;
34278;SDS011;20538;51.528;9.942;2023-02-13T01:27:08;30.35;;;14.23;;
34278;SDS011;20538;51.528;9.942;2023-02-13T01:29:34;31.48;;;15.00;;
34278;SDS011;20538;51.528;9.942;2023-02-13T01:32:00;28.83;;;13.88;;
34278;SDS011;20538;51.528;9.942;2023-02-13T01:34:27;32.75;;;14.77;;
34278;SDS011;20538;51.528;9.942;2023-02-13T01:36:55;28.58;;;13.00;;
34278;SDS011;20538;51.528;9.942;2023-02-13T01:39:21;30.67;;;14.32;;
34278;SDS011;20538;51.528;9.942;2023-02-13T01:41:50;28.48;;;13.68;;
34278;SDS011;20538;51.528;9.942;2023-02-13T01:52:52;34.20;;;15.52;;
34278;SDS011;20538;51.528;9.942;2023-02-13T01:55:40;28.33;;;13.73;;
34278;SDS011;20538;51.528;9.942;2023-02-13T01:58:11;29.52;;;13.93;;
34278;SDS011;20538;51.528;9.942;2023-02-13T02:00:42;32.30;;;14.55;;
34278;SDS011;20538;51.528;9.942;2023-02-13T02:03:15;33.45;;;14.60;;
34278;SDS011;20538;51.528;9.942;2023-02-13T02:05:48;31.88;;;13.85;;
34278;SDS011;20538;51.528;9.942;2023-02-13T02:08:15;34.80;;;14.95;;
34278;SDS011;20538;51.528;9.942;2023-02-13T02:10:43;33.45;;;14.73;;
34278;SDS011;20538;51.528;9.942;2023-02-13T02:15:39;29.05;;;13.82;;
34278;SDS011;20538;51.528;9.942;2023-02-13T02:18:16;36.78;;;15.05;;
34278;SDS011;20538;51.528;9.942;2023-02-13T02:28:50;32.63;;;15.27;;
34278;SDS011;20538;51.528;9.942;2023-02-13T02:43:02;27.15;;;11.98;;
34278;SDS011;20538;51.528;9.942;2023-02-13T02:51:21;27.13;;;12.60;;
34278;SDS011;20538;51.528;9.942;2023-02-13T02:57:11;24.52;;;12.23;;
34278;SDS011;20538;51.528;9.942;2023-02-13T02:59:40;23.77;;;10.32;;
34278;SDS011;20538;51.528;9.942;2023-02-13T03:02:27;23.60;;;11.07;;
34278;SDS011;20538;51.528;9.942;2023-02-13T03:05:18;19.88;;;9.85;;
34278;SDS011;20538;51.528;9.942;2023-02-13T03:08:14;21.27;;;10.32;;
34278;SDS011;20538;51.528;9.942;2023-02-13T03:11:00;18.92;;;10.32;;
34278;SDS011;20538;51.528;9.942;2023-02-13T03:13:45;15.82;;;8.18;;
34278;SDS011;20538;51.528;9.942;2023-02-13T03:16:20;13.27;;;7.35;;
34278;SDS011;20538;51.528;9.942;2023-02-13T03:19:12;14.60;;;7.50;;
34278;SDS011;20538;51.528;9.942;2023-02-13T03:22:07;10.93;;;5.78;;
34278;SDS011;20538;51.528;9.942;2023-02-13T03:25:31;11.30;;;5.68;;
34278;SDS011;20538;51.528;9.942;2023-02-13T03:30:41;9.05;;;5.15;;
34278;SDS011;20538;51.528;9.942;2023-02-13T03:36:15;8.77;;;4.95;;
34278;SDS011;20538;51.528;9.942;2023-02-13T03:39:27;9.88;;;4.57;;
34278;SDS011;20538;51.528;9.942;2023-02-13T03:42:27;11.00;;;4.50;;
34278;SDS011;20538;51.528;9.942;2023-02-13T03:45:02;10.38;;;5.13;;
34278;SDS011;20538;51.528;9.942;2023-02-13T03:47:50;7.50;;;4.13;;
34278;SDS011;20538;51.528;9.942;2023-02-13T03:50:18;7.40;;;3.72;;
34278;SDS011;20538;51.528;9.942;2023-02-13T03:52:52;4.55;;;3.22;;
34278;SDS011;20538;51.528;9.942;2023-02-13T03:55:31;6.60;;;3.20;;
34278;SDS011;20538;51.528;9.942;2023-02-13T03:58:22;6.05;;;3.47;;
34278;SDS011;20538;51.528;9.942;2023-02-13T04:01:13;5.25;;;2.88;;
34278;SDS011;20538;51.528;9.942;2023-02-13T04:06:12;6.18;;;3.47;;
34278;SDS011;20538;51.528;9.942;2023-02-13T04:08:43;4.30;;;2.70;;
34278;SDS011;20538;51.528;9.942;2023-02-13T04:11:16;5.32;;;3.08;;
34278;SDS011;20538;51.528;9.942;2023-02-13T04:13:54;4.75;;;3.03;;
34278;SDS011;20538;51.528;9.942;2023-02-13T04:19:22;3.95;;;2.78;;
34278;SDS011;20538;51.528;9.942;2023-02-13T04:21:53;4.30;;;2.47;;
34278;SDS011;20538;51.528;9.942;2023-02-13T04:24:21;4.88;;;2.75;;
34278;SDS011;20538;51.528;9.942;2023-02-13T04:26:47;5.80;;;2.65;;
34278;SDS011;20538;51.528;9.942;2023-02-13T04:29:12;4.93;;;3.20;;
34278;SDS011;20538;51.528;9.942;2023-02-13T04:31:38;3.80;;;2.28;;
34278;SDS011;20538;51.528;9.942;2023-02-13T04:34:04;4.68;;;2.40;;
34278;SDS011;20538;51.528;9.942;2023-02-13T04:36:30;4.75;;;2.20;;
34278;SDS011;20538;51.528;9.942;2023-02-13T04:38:56;4.50;;;3.25;;
34278;SDS011;20538;51.528;9.942;2023-02-13T04:41:21;2.75;;;2.17;;
34278;SDS011;20538;51.528;9.942;2023-02-13T04:43:47;4.78;;;2.58;;
34278;SDS011;20538;51.528;9.942;2023-02-13T04:46:13;4.40;;;2.42;;
34278;SDS011;20538;51.528;9.942;2023-02-13T04:48:38;2.78;;;1.70;;
34278;SDS011;20538;51.528;9.942;2023-02-13T04:51:04;2.50;;;1.70;;
34278;SDS011;20538;51.528;9.942;2023-02-13T04:53:30;5.53;;;1.70;;
34278;SDS011;20538;51.528;9.942;2023-02-13T04:55:55;2.97;;;1.75;;
34278;SDS011;20538;51.528;9.942;2023-02-13T04:58:21;1.90;;;1.42;;
34278;SDS011;20538;51.528;9.942;2023-02-13T05:00:47;1.58;;;1.23;;
34278;SDS011;20538;51.528;9.942;2023-02-13T05:03:12;2.80;;;1.50;;
34278;SDS011;20538;51.528;9.942;2023-02-13T05:05:38;1.77;;;1.30;;
34278;SDS011;20538;51.528;9.942;2023-02-13T05:08:05;2.55;;;1.42;;
34278;SDS011;20538;51.528;9.942;2023-02-13T05:10:31;1.80;;;1.25;;
34278;SDS011;20538;51.528;9.942;2023-02-13T05:12:57;1.55;;;1.35;;
34278;SDS011;20538;51.528;9.942;2023-02-13T05:15:23;2.75;;;1.92;;
34278;SDS011;20538;51.528;9.942;2023-02-13T05:17:49;2.88;;;1.67;;
34278;SDS011;20538;51.528;9.942;2023-02-13T05:20:15;2.08;;;1.48;;
34278;SDS011;20538;51.528;9.942;2023-02-13T05:22:45;2.30;;;1.52;;
34278;SDS011;20538;51.528;9.942;2023-02-13T05:25:31;1.90;;;1.58;;
34278;SDS011;20538;51.528;9.942;2023-02-13T05:27:57;2.67;;;1.60;;
34278;SDS011;20538;51.528;9.942;2023-02-13T05:30:23;4.65;;;1.90;;
34278;SDS011;20538;51.528;9.942;2023-02-13T05:32:48;2.33;;;1.90;;
34278;SDS011;20538;51.528;9.942;2023-02-13T05:35:18;2.63;;;1.90;;
34278;SDS011;20538;51.528;9.942;2023-02-13T05:37:45;2.83;;;1.90;;
34278;SDS011;20538;51.528;9.942;2023-02-13T05:40:11;2.95;;;2.08;;
34278;SDS011;20538;51.528;9.942;2023-02-13T05:42:37;3.83;;;2.53;;
34278;SDS011;20538;51.528;9.942;2023-02-13T05:45:04;4.10;;;2.00;;
34278;SDS011;20538;51.528;9.942;2023-02-13T05:47:30;4.25;;;3.00;;
34278;SDS011;20538;51.528;9.942;2023-02-13T05:49:56;4.70;;;2.60;;
34278;SDS011;20538;51.528;9.942;2023-02-13T05:52:21;5.13;;;2.97;;
34278;SDS011;20538;51.528;9.942;2023-02-13T05:54:50;4.95;;;3.03;;
34278;SDS011;20538;51.528;9.942;2023-02-13T05:57:18;6.63;;;4.07;;
34278;SDS011;20538;51.528;9.942;2023-02-13T05:59:46;8.63;;;3.95;;
34278;SDS011;20538;51.528;9.942;2023-02-13T06:02:12;4.63;;;2.90;;
34278;SDS011;20538;51.528;9.942;2023-02-13T06:04:38;5.47;;;3.03;;
34278;SDS011;20538;51.528;9.942;2023-02-13T06:07:05;5.65;;;2.90;;
34278;SDS011;20538;51.528;9.942;2023-02-13T06:09:30;4.38;;;2.90;;
34278;SDS011;20538;51.528;9.942;2023-02-13T06:11:56;4.18;;;2.58;;
34278;SDS011;20538;51.528;9.942;2023-02-13T06:14:22;5.28;;;2.72;;
34278;SDS011;20538;51.528;9.942;2023-02-13T06:16:47;3.33;;;2.20;;
34278;SDS011;20538;51.528;9.942;2023-02-13T06:19:13;6.45;;;2.70;;
34278;SDS011;20538;51.528;9.942;2023-02-13T06:21:38;4.38;;;2.53;;
34278;SDS011;20538;51.528;9.942;2023-02-13T06:24:04;4.43;;;2.92;;
34278;SDS011;20538;51.528;9.942;2023-02-13T06:26:31;5.10;;;3.20;;
34278;SDS011;20538;51.528;9.942;2023-02-13T06:28:57;3.58;;;2.45;;
34278;SDS011;20538;51.528;9.942;2023-02-13T06:31:23;3.78;;;2.38;;
34278;SDS011;20538;51.528;9.942;2023-02-13T06:33:48;3.53;;;2.30;;
34278;SDS011;20538;51.528;9.942;2023-02-13T06:36:14;4.30;;;2.40;;
34278;SDS011;20538;51.528;9.942;2023-02-13T06:38:40;3.35;;;2.05;;
34278;SDS011;20538;51.528;9.942;2023-02-13T06:41:05;3.50;;;2.35;;
34278;SDS011;20538;51.528;9.942;2023-02-13T06:43:31;4.57;;;2.55;;
34278;SDS011;20538;51.528;9.942;2023-02-13T06:45:57;3.90;;;2.25;;
34278;SDS011;20538;51.528;9.942;2023-02-13T06:48:23;4.03;;;2.20;;
34278;SDS011;20538;51.528;9.942;2023-02-13T06:50:49;3.58;;;2.30;;
34278;SDS011;20538;51.528;9.942;2023-02-13T06:53:18;2.92;;;1.90;;
34278;SDS011;20538;51.528;9.942;2023-02-13T06:55:48;3.78;;;2.47;;
34278;SDS011;20538;51.528;9.942;2023-02-13T06:58:15;5.65;;;2.50;;
34278;SDS011;20538;51.528;9.942;2023-02-13T07:00:41;4.97;;;2.47;;
34278;SDS011;20538;51.528;9.942;2023-02-13T07:03:08;3.78;;;2.50;;
34278;SDS011;20538;51.528;9.942;2023-02-13T07:05:34;3.65;;;2.20;;
34278;SDS011;20538;51.528;9.942;2023-02-13T07:08:00;4.72;;;2.80;;
34278;SDS011;20538;51.528;9.942;2023-02-13T07:10:25;5.10;;;2.40;;
34278;SDS011;20538;51.528;9.942;2023-02-13T07:12:51;3.13;;;2.20;;
34278;SDS011;20538;51.528;9.942;2023-02-13T07:15:17;4.93;;;2.05;;
34278;SDS011;20538;51.528;9.942;2023-02-13T07:17:42;8.15;;;2.47;;
34278;SDS011;20538;51.528;9.942;2023-02-13T07:20:08;3.90;;;2.25;;
34278;SDS011;20538;51.528;9.942;2023-02-13T07:22:34;3.78;;;2.33;;
34278;SDS011;20538;51.528;9.942;2023-02-13T07:25:00;3.47;;;2.00;;
34278;SDS011;20538;51.528;9.942;2023-02-13T07:27:26;4.03;;;1.85;;
34278;SDS011;20538;51.528;9.942;2023-02-13T07:29:53;6.45;;;1.92;;
34278;SDS011;20538;51.528;9.942;2023-02-13T07:32:20;4.30;;;2.10;;
34278;SDS011;20538;51.528;9.942;2023-02-13T07:34:46;6.57;;;2.35;;
34278;SDS011;20538;51.528;9.942;2023-02-13T07:37:12;3.28;;;1.80;;
34278;SDS011;20538;51.528;9.942;2023-02-13T07:39:37;4.72;;;2.50;;
34278;SDS011;20538;51.528;9.942;2023-02-13T07:42:04;2.60;;;1.98;;
34278;SDS011;20538;51.528;9.942;2023-02-13T07:44:30;2.20;;;1.67;;
34278;SDS011;20538;51.528;9.942;2023-02-13T07:46:56;2.45;;;1.83;;
34278;SDS011;20538;51.528;9.942;2023-02-13T07:49:25;3.75;;;1.85;;
34278;SDS011;20538;51.528;9.942;2023-02-13T07:51:51;2.65;;;1.88;;
34278;SDS011;20538;51.528;9.942;2023-02-13T07:54:16;3.63;;;1.67;;
34278;SDS011;20538;51.528;9.942;2023-02-13T07:56:45;3.05;;;2.35;;
34278;SDS011;20538;51.528;9.942;2023-02-13T07:59:10;4.45;;;1.83;;
34278;SDS011;20538;51.528;9.942;2023-02-13T08:01:36;3.38;;;2.10;;
34278;SDS011;20538;51.528;9.942;2023-02-13T08:04:02;2.88;;;1.75;;
34278;SDS011;20538;51.528;9.942;2023-02-13T08:06:27;2.95;;;1.88;;
34278;SDS011;20538;51.528;9.942;2023-02-13T08:08:53;3.15;;;1.70;;
34278;SDS011;20538;51.528;9.942;2023-02-13T08:11:39;3.30;;;1.95;;
34278;SDS011;20538;51.528;9.942;2023-02-13T08:14:23;2.67;;;1.90;;
34278;SDS011;20538;51.528;9.942;2023-02-13T08:16:50;3.67;;;1.92;;
34278;SDS011;20538;51.528;9.942;2023-02-13T08:19:17;2.30;;;1.58;;
34278;SDS011;20538;51.528;9.942;2023-02-13T08:21:45;5.65;;;2.30;;
34278;SDS011;20538;51.528;9.942;2023-02-13T08:24:11;2.78;;;1.80;;
34278;SDS011;20538;51.528;9.942;2023-02-13T08:26:37;2.35;;;1.80;;
34278;SDS011;20538;51.528;9.942;2023-02-13T08:29:03;2.65;;;1.90;;
34278;SDS011;20538;51.528;9.942;2023-02-13T08:31:30;2.47;;;1.67;;
34278;SDS011;20538;51.528;9.942;2023-02-13T08:33:56;3.15;;;2.15;;
34278;SDS011;20538;51.528;9.942;2023-02-13T08:36:24;3.47;;;2.25;;
34278;SDS011;20538;51.528;9.942;2023-02-13T08:38:50;5.68;;;3.28;;
34278;SDS011;20538;51.528;9.942;2023-02-13T08:41:16;5.88;;;3.13;;
34278;SDS011;20538;51.528;9.942;2023-02-13T08:43:48;7.40;;;2.63;;
34278;SDS011;20538;51.528;9.942;2023-02-13T08:46:16;7.05;;;2.60;;
34278;SDS011;20538;51.528;9.942;2023-02-13T08:48:42;3.67;;;2.42;;
34278;SDS011;20538;51.528;9.942;2023-02-13T08:51:09;3.65;;;2.25;;
34278;SDS011;20538;51.528;9.942;2023-02-13T08:53:36;3.97;;;2.33;;
34278;SDS011;20538;51.528;9.942;2023-02-13T08:56:05;4.15;;;2.47;;
34278;SDS011;20538;51.528;9.942;2023-02-13T08:58:31;5.15;;;2.80;;
34278;SDS011;20538;51.528;9.942;2023-02-13T09:00:57;4.50;;;2.50;;
34278;SDS011;20538;51.528;9.942;2023-02-13T09:03:22;6.32;;;2.67;;
34278;SDS011;20538;51.528;9.942;2023-02-13T09:05:48;5.57;;;3.10;;
34278;SDS011;20538;51.528;9.942;2023-02-13T09:08:14;5.90;;;3.13;;
34278;SDS011;20538;51.528;9.942;2023-02-13T09:10:40;6.72;;;3.38;;
34278;SDS011;20538;51.528;9.942;2023-02-13T09:13:08;6.15;;;3.20;;
34278;SDS011;20538;51.528;9.942;2023-02-13T09:15:36;9.88;;;5.20;;
34278;SDS011;20538;51.528;9.942;2023-02-13T09:18:06;11.43;;;5.60;;
34278;SDS011;20538;51.528;9.942;2023-02-13T09:20:32;10.05;;;3.95;;
34278;SDS011;20538;51.528;9.942;2023-02-13T09:22:58;7.13;;;3.92;;
34278;SDS011;20538;51.528;9.942;2023-02-13T09:25:23;7.18;;;3.47;;
34278;SDS011;20538;51.528;9.942;2023-02-13T09:27:49;8.15;;;4.00;;
34278;SDS011;20538;51.528;9.942;2023-02-13T09:30:15;6.70;;;4.30;;
34278;SDS011;20538;51.528;9.942;2023-02-13T09:32:47;8.07;;;4.00;;
34278;SDS011;20538;51.528;9.942;2023-02-13T09:35:13;9.13;;;4.32;;
34278;SDS011;20538;51.528;9.942;2023-02-13T09:37:39;9.20;;;4.28;;
34278;SDS011;20538;51.528;9.942;2023-02-13T09:40:06;7.38;;;4.03;;
34278;SDS011;20538;51.528;9.942;2023-02-13T09:43:14;9.60;;;4.35;;
34278;SDS011;20538;51.528;9.942;2023-02-13T09:45:46;9.80;;;4.80;;
34278;SDS011;20538;51.528;9.942;2023-02-13T09:48:27;11.10;;;4.57;;
34278;SDS011;20538;51.528;9.942;2023-02-13T09:50:56;8.90;;;4.38;;
34278;SDS011;20538;51.528;9.942;2023-02-13T09:53:24;9.23;;;4.78;;
34278;SDS011;20538;51.528;9.942;2023-02-13T09:56:06;12.13;;;4.72;;
34278;SDS011;20538;51.528;9.942;2023-02-13T10:01:17;12.02;;;5.60;;
34278;SDS011;20538;51.528;9.942;2023-02-13T10:04:02;12.65;;;6.05;;
34278;SDS011;20538;51.528;9.942;2023-02-13T10:06:44;11.02;;;5.60;;
34278;SDS011;20538;51.528;9.942;2023-02-13T10:09:19;11.98;;;5.57;;
34278;SDS011;20538;51.528;9.942;2023-02-13T10:12:04;13.60;;;6.93;;
34278;SDS011;20538;51.528;9.942;2023-02-13T10:18:16;12.85;;;6.78;;
34278;SDS011;20538;51.528;9.942;2023-02-13T10:20:57;16.40;;;7.85;;
34278;SDS011;20538;51.528;9.942;2023-02-13T10:23:32;15.00;;;6.97;;
34278;SDS011;20538;51.528;9.942;2023-02-13T10:26:06;12.88;;;6.35;;
34278;SDS011;20538;51.528;9.942;2023-02-13T10:28:47;15.20;;;7.05;;
34278;SDS011;20538;51.528;9.942;2023-02-13T10:31:41;15.10;;;6.60;;
34278;SDS011;20538;51.528;9.942;2023-02-13T10:34:10;13.65;;;7.10;;
34278;SDS011;20538;51.528;9.942;2023-02-13T10:36:40;15.93;;;8.30;;
34278;SDS011;20538;51.528;9.942;2023-02-13T10:39:16;14.07;;;7.38;;
34278;SDS011;20538;51.528;9.942;2023-02-13T10:41:47;11.98;;;6.63;;
34278;SDS011;20538;51.528;9.942;2023-02-13T10:47:29;13.88;;;7.45;;
34278;SDS011;20538;51.528;9.942;2023-02-13T11:01:39;14.88;;;7.57;;
34278;SDS011;20538;51.528;9.942;2023-02-13T11:04:14;15.75;;;7.10;;
34278;SDS011;20538;51.528;9.942;2023-02-13T11:06:58;16.52;;;8.25;;
34278;SDS011;20538;51.528;9.942;2023-02-13T11:09:26;15.77;;;8.80;;
34278;SDS011;20538;51.528;9.942;2023-02-13T11:11:54;18.30;;;8.07;;
34278;SDS011;20538;51.528;9.942;2023-02-13T11:14:21;16.13;;;8.32;;
34278;SDS011;20538;51.528;9.942;2023-02-13T11:16:58;14.68;;;8.60;;
34278;SDS011;20538;51.528;9.942;2023-02-13T11:19:37;25.95;;;14.05;;
34278;SDS011;20538;51.528;9.942;2023-02-13T11:22:33;16.70;;;7.85;;
34278;SDS011;20538;51.528;9.942;2023-02-13T11:25:03;13.23;;;7.38;;
34278;SDS011;20538;51.528;9.942;2023-02-13T11:27:33;15.65;;;7.97;;
34278;SDS011;20538;51.528;9.942;2023-02-13T11:30:04;16.63;;;8.77;;
34278;SDS011;20538;51.528;9.942;2023-02-13T11:33:00;14.57;;;8.57;;
34278;SDS011;20538;51.528;9.942;2023-02-13T11:35:29;16.73;;;8.82;;
34278;SDS011;20538;51.528;9.942;2023-02-13T11:40:48;17.92;;;8.60;;
34278;SDS011;20538;51.528;9.942;2023-02-13T11:46:03;14.65;;;7.95;;
34278;SDS011;20538;51.528;9.942;2023-02-13T11:48:33;16.08;;;8.65;;
34278;SDS011;20538;51.528;9.942;2023-02-13T11:50:59;18.20;;;9.32;;
34278;SDS011;20538;51.528;9.942;2023-02-13T11:53:26;15.52;;;8.52;;
34278;SDS011;20538;51.528;9.942;2023-02-13T11:56:15;15.23;;;8.68;;
34278;SDS011;20538;51.528;9.942;2023-02-13T11:58:41;16.50;;;9.13;;
34278;SDS011;20538;51.528;9.942;2023-02-13T12:06:36;20.25;;;9.68;;
34278;SDS011;20538;51.528;9.942;2023-02-13T12:09:11;15.68;;;8.57;;
34278;SDS011;20538;51.528;9.942;2023-02-13T12:11:41;17.90;;;8.85;;
34278;SDS011;20538;51.528;9.942;2023-02-13T12:14:11;15.63;;;8.55;;
34278;SDS011;20538;51.528;9.942;2023-02-13T12:16:44;19.00;;;9.05;;
34278;SDS011;20538;51.528;9.942;2023-02-13T12:19:24;20.02;;;9.25;;
34278;SDS011;20538;51.528;9.942;2023-02-13T12:25:05;19.33;;;10.20;;
34278;SDS011;20538;51.528;9.942;2023-02-13T12:33:20;19.23;;;9.73;;
34278;SDS011;20538;51.528;9.942;2023-02-13T12:36:20;21.00;;;10.05;;
34278;SDS011;20538;51.528;9.942;2023-02-13T12:38:57;18.95;;;9.82;;
34278;SDS011;20538;51.528;9.942;2023-02-13T12:42:16;19.55;;;10.57;;
34278;SDS011;20538;51.528;9.942;2023-02-13T12:44:56;16.27;;;9.27;;
34278;SDS011;20538;51.528;9.942;2023-02-13T12:48:09;18.67;;;10.20;;
34278;SDS011;20538;51.528;9.942;2023-02-13T12:50:53;18.42;;;9.85;;
34278;SDS011;20538;51.528;9.942;2023-02-13T12:56:48;20.90;;;9.98;;
34278;SDS011;20538;51.528;9.942;2023-02-13T13:26:49;19.33;;;10.43;;
34278;SDS011;20538;51.528;9.942;2023-02-13T13:31:49;17.10;;;9.93;;
34278;SDS011;20538;51.528;9.942;2023-02-13T13:34:24;23.73;;;11.93;;
34278;SDS011;20538;51.528;9.942;2023-02-13T13:39:48;23.10;;;10.98;;
34278;SDS011;20538;51.528;9.942;2023-02-13T13:47:52;19.88;;;11.15;;
34278;SDS011;20538;51.528;9.942;2023-02-13T13:50:31;23.08;;;11.32;;
34278;SDS011;20538;51.528;9.942;2023-02-13T14:03:48;24.05;;;11.80;;
34278;SDS011;20538;51.528;9.942;2023-02-13T14:06:26;23.90;;;12.07;;
34278;SDS011;20538;51.528;9.942;2023-02-13T14:14:52;19.98;;;10.95;;
34278;SDS011;20538;51.528;9.942;2023-02-13T14:23:06;22.77;;;11.48;;
34278;SDS011;20538;51.528;9.942;2023-02-13T14:25:32;20.90;;;11.40;;
34278;SDS011;20538;51.528;9.942;2023-02-13T14:27:59;21.73;;;10.80;;
34278;SDS011;20538;51.528;9.942;2023-02-13T14:30:28;20.90;;;11.57;;
34278;SDS011;20538;51.528;9.942;2023-02-13T14:32:54;19.10;;;10.65;;
34278;SDS011;20538;51.528;9.942;2023-02-13T14:35:38;22.63;;;11.93;;
34278;SDS011;20538;51.528;9.942;2023-02-13T14:38:04;22.27;;;11.13;;
34278;SDS011;20538;51.528;9.942;2023-02-13T14:40:47;28.67;;;11.82;;
34278;SDS011;20538;51.528;9.942;2023-02-13T14:49:18;25.90;;;12.15;;
34278;SDS011;20538;51.528;9.942;2023-02-13T14:54:03;21.98;;;11.25;;
34278;SDS011;20538;51.528;9.942;2023-02-13T14:56:33;24.95;;;11.23;;
34278;SDS011;20538;51.528;9.942;2023-02-13T15:04:29;23.20;;;12.80;;
34278;SDS011;20538;51.528;9.942;2023-02-13T15:07:00;24.58;;;11.77;;
34278;SDS011;20538;51.528;9.942;2023-02-13T15:09:35;22.77;;;12.02;;
34278;SDS011;20538;51.528;9.942;2023-02-13T15:12:22;29.80;;;13.00;;
34278;SDS011;20538;51.528;9.942;2023-02-13T15:14:56;23.10;;;11.60;;
34278;SDS011;20538;51.528;9.942;2023-02-13T15:17:34;25.05;;;12.40;;
34278;SDS011;20538;51.528;9.942;2023-02-13T15:20:13;25.33;;;12.52;;
34278;SDS011;20538;51.528;9.942;2023-02-13T15:22:50;20.95;;;11.60;;
34278;SDS011;20538;51.528;9.942;2023-02-13T15:28:02;24.85;;;12.77;;
34278;SDS011;20538;51.528;9.942;2023-02-13T15:30:30;24.10;;;12.63;;
34278;SDS011;20538;51.528;9.942;2023-02-13T15:33:16;20.42;;;10.93;;
34278;SDS011;20538;51.528;9.942;2023-02-13T15:35:44;22.52;;;11.40;;
34278;SDS011;20538;51.528;9.942;2023-02-13T15:38:22;23.88;;;11.82;;
34278;SDS011;20538;51.528;9.942;2023-02-13T15:41:10;22.65;;;11.05;;
34278;SDS011;20538;51.528;9.942;2023-02-13T15:43:45;23.67;;;11.30;;
34278;SDS011;20538;51.528;9.942;2023-02-13T15:46:33;21.40;;;11.30;;
34278;SDS011;20538;51.528;9.942;2023-02-13T15:51:30;19.48;;;10.43;;
34278;SDS011;20538;51.528;9.942;2023-02-13T15:53:59;21.00;;;11.20;;
34278;SDS011;20538;51.528;9.942;2023-02-13T15:56:26;20.35;;;10.77;;
34278;SDS011;20538;51.528;9.942;2023-02-13T15:58:52;21.42;;;11.15;;
34278;SDS011;20538;51.528;9.942;2023-02-13T16:01:20;20.25;;;10.95;;
34278;SDS011;20538;51.528;9.942;2023-02-13T16:03:58;23.65;;;11.38;;
34278;SDS011;20538;51.528;9.942;2023-02-13T16:06:27;23.00;;;11.05;;
34278;SDS011;20538;51.528;9.942;2023-02-13T16:08:57;21.80;;;10.32;;
34278;SDS011;20538;51.528;9.942;2023-02-13T16:11:36;20.00;;;10.57;;
34278;SDS011;20538;51.528;9.942;2023-02-13T16:16:55;18.02;;;9.57;;
34278;SDS011;20538;51.528;9.942;2023-02-13T16:19:50;20.63;;;10.48;;
34278;SDS011;20538;51.528;9.942;2023-02-13T16:25:02;19.50;;;10.13;;
34278;SDS011;20538;51.528;9.942;2023-02-13T16:33:25;20.08;;;9.10;;
34278;SDS011;20538;51.528;9.942;2023-02-13T16:35:56;14.65;;;8.45;;
34278;SDS011;20538;51.528;9.942;2023-02-13T16:43:50;18.88;;;10.07;;
34278;SDS011;20538;51.528;9.942;2023-02-13T16:49:01;18.05;;;10.05;;
34278;SDS011;20538;51.528;9.942;2023-02-13T16:51:36;24.52;;;10.43;;
34278;SDS011;20538;51.528;9.942;2023-02-13T16:54:24;26.73;;;10.40;;
34278;SDS011;20538;51.528;9.942;2023-02-13T16:56:55;19.17;;;10.32;;
34278;SDS011;20538;51.528;9.942;2023-02-13T17:02:13;19.95;;;9.77;;
34278;SDS011;20538;51.528;9.942;2023-02-13T17:05:29;21.33;;;10.52;;
34278;SDS011;20538;51.528;9.942;2023-02-13T17:07:45;23.55;;;10.88;;
34278;SDS011;20538;51.528;9.942;2023-02-13T17:12:46;23.85;;;11.15;;
34278;SDS011;20538;51.528;9.942;2023-02-13T17:15:15;20.63;;;11.02;;
34278;SDS011;20538;51.528;9.942;2023-02-13T17:17:43;25.48;;;10.93;;
34278;SDS011;20538;51.528;9.942;2023-02-13T17:20:13;23.88;;;11.18;;
34278;SDS011;20538;51.528;9.942;2023-02-13T17:22:44;22.42;;;10.77;;
34278;SDS011;20538;51.528;9.942;2023-02-13T17:25:28;21.05;;;10.65;;
34278;SDS011;20538;51.528;9.942;2023-02-13T17:27:56;26.02;;;12.68;;
34278;SDS011;20538;51.528;9.942;2023-02-13T17:30:27;23.92;;;11.02;;
34278;SDS011;20538;51.528;9.942;2023-02-13T17:32:56;22.23;;;12.18;;
34278;SDS011;20538;51.528;9.942;2023-02-13T17:35:24;20.77;;;11.18;;
34278;SDS011;20538;51.528;9.942;2023-02-13T17:37:50;22.15;;;11.82;;
34278;SDS011;20538;51.528;9.942;2023-02-13T17:40:16;22.88;;;11.60;;
34278;SDS011;20538;51.528;9.942;2023-02-13T17:42:48;23.70;;;12.43;;
34278;SDS011;20538;51.528;9.942;2023-02-13T17:45:17;26.70;;;12.65;;
34278;SDS011;20538;51.528;9.942;2023-02-13T17:47:44;23.67;;;12.00;;
34278;SDS011;20538;51.528;9.942;2023-02-13T17:50:10;29.98;;;15.07;;
34278;SDS011;20538;51.528;9.942;2023-02-13T17:52:37;32.85;;;16.33;;
34278;SDS011;20538;51.528;9.942;2023-02-13T17:55:04;29.35;;;16.65;;
34278;SDS011;20538;51.528;9.942;2023-02-13T17:57:30;35.83;;;17.25;;
34278;SDS011;20538;51.528;9.942;2023-02-13T17:59:56;34.97;;;17.00;;
34278;SDS011;20538;51.528;9.942;2023-02-13T18:02:23;34.72;;;17.25;;
34278;SDS011;20538;51.528;9.942;2023-02-13T18:04:51;32.47;;;15.43;;
34278;SDS011;20538;51.528;9.942;2023-02-13T18:07:17;41.30;;;15.55;;
34278;SDS011;20538;51.528;9.942;2023-02-13T18:09:44;30.15;;;15.48;;
34278;SDS011;20538;51.528;9.942;2023-02-13T18:12:14;31.10;;;15.82;;
34278;SDS011;20538;51.528;9.942;2023-02-13T18:14:45;33.25;;;16.33;;
34278;SDS011;20538;51.528;9.942;2023-02-13T18:17:11;33.47;;;18.10;;